Gifford, IL (61847)

3:06 AM CDT on October 24, 2014 (GMT -0500)
Flatville | Change Station
CLOSE
Current Station
Personal Weather Station
Location: Thomasboro, IL
Elevation: 686 ft
Nearby Weather Stations

Elev 686 ft 40.24 °N, 88.06 °W | Updated 5 minutes ago

Overcast
Overcast
50.1 °F
Feels Like 50.1 °F
N
3.0
Wind Variable Wind from SE
Gusts 4.0 mph

Today
High -- | Low -- °F
--% Chance of Precip.
Yesterday
High -- | Low -- °F
Precip. -- in
7:12 AM 5:59 PM
New Moon, 0% visible
Pressure 30.07 in
Visibility 10.0 miles
Clouds Overcast 2500 ft
Dew Point 48 °F
Humidity 92%
Rainfall 0.00 in
Snow Depth Not available.
UV 0 out of 12
Pollen .70 out of 12
Air Quality Not available.
Flu Activity No Activity
METAR KTIP 240750Z AUTO 00000KT 10SM OVC025 11/09 A3007 RMK AO2 T01110085

More Conditions Fewer Conditions

Pressure 30.07 in
Visibility 10.0 miles
Clouds Overcast 2500 ft
Dew Point 48 °F
Humidity 92%
Rainfall 0.00 in
Snow Depth Not available.
UV 0 out of 12
Pollen .70 out of 12
Air Quality Not available.
Flu Activity No Activity
METAR KTIP 240750Z AUTO 00000KT 10SM OVC025 11/09 A3007 RMK AO2 T01110085

More Conditions Fewer Conditions

10-Day Weather Forecast

Almanac

Astronomy

Oct. 24, 2014 Rise Set
Actual Time 7:12 AM CDT 5:59 PM CDT
Civil Twilight 6:44 AM CDT 6:27 PM CDT
Nautical Twilight 6:13 AM CDT 6:58 PM CDT
Astronomical Twilight 5:41 AM CDT 7:30 PM CDT
Moon 7:51 AM CDT 6:39 PM CDT
Length of Visible Light 11h 42m
Length of Day
10h 46m
Tomorrow will be 2m 28s shorter.
New Moon, 0% of the Moon is Illuminated
Today
New Moon
Oct 30
First Quarter
Nov 6
Full
Nov 14
Last Quarter
Nov 22
New

Today's Extremes

State Highs State Lows

Community

WunderPhotos

Upload Photos

1,764,512 photos uploaded!

WunderBlogs® & News

Nearby

Snow Depth

Station Depth Elevation
No new snow has been reported.

Earthquake Activity

City Distance Mag. Time & Date
No recent earthquake activity has been reported nearby.
Minimum magnitude displayed is 2.5.

Coastal Water Temperatures

Place Temperature
No Stations Reporting

Nearby Weather Stations